sensor_id;sensor_type;location;lat;lon;timestamp;temperature;humidity
24618;DHT22;12762;51.730;5.356;2024-02-16T00:02:16;13.00;84.50
24618;DHT22;12762;51.730;5.356;2024-02-16T00:04:44;13.00;84.50
24618;DHT22;12762;51.730;5.356;2024-02-16T00:07:11;13.00;84.50
24618;DHT22;12762;51.730;5.356;2024-02-16T00:09:38;13.00;84.50
24618;DHT22;12762;51.730;5.356;2024-02-16T00:12:05;13.00;84.50
24618;DHT22;12762;51.730;5.356;2024-02-16T00:14:32;12.90;84.50
24618;DHT22;12762;51.730;5.356;2024-02-16T00:17:00;12.90;84.50
24618;DHT22;12762;51.730;5.356;2024-02-16T00:19:27;12.90;84.60
24618;DHT22;12762;51.730;5.356;2024-02-16T00:21:54;12.90;84.60
24618;DHT22;12762;51.730;5.356;2024-02-16T00:24:22;12.80;84.60
24618;DHT22;12762;51.730;5.356;2024-02-16T00:26:49;12.80;84.60
24618;DHT22;12762;51.730;5.356;2024-02-16T00:29:16;12.80;84.70
24618;DHT22;12762;51.730;5.356;2024-02-16T00:31:43;12.80;84.80
24618;DHT22;12762;51.730;5.356;2024-02-16T00:34:12;12.80;84.80
24618;DHT22;12762;51.730;5.356;2024-02-16T00:36:39;12.70;84.70
24618;DHT22;12762;51.730;5.356;2024-02-16T00:39:06;12.70;84.70
24618;DHT22;12762;51.730;5.356;2024-02-16T00:41:33;12.70;84.80
24618;DHT22;12762;51.730;5.356;2024-02-16T00:43:59;12.70;84.80
24618;DHT22;12762;51.730;5.356;2024-02-16T00:46:26;12.70;84.80
24618;DHT22;12762;51.730;5.356;2024-02-16T00:48:53;12.70;84.90
24618;DHT22;12762;51.730;5.356;2024-02-16T00:51:23;12.70;84.90
24618;DHT22;12762;51.730;5.356;2024-02-16T00:53:52;12.70;84.90
24618;DHT22;12762;51.730;5.356;2024-02-16T00:56:22;12.70;84.90
24618;DHT22;12762;51.730;5.356;2024-02-16T00:58:50;12.70;84.90
24618;DHT22;12762;51.730;5.356;2024-02-16T01:01:17;12.70;85.00
24618;DHT22;12762;51.730;5.356;2024-02-16T01:03:44;12.70;84.90
24618;DHT22;12762;51.730;5.356;2024-02-16T01:06:10;12.70;85.00
24618;DHT22;12762;51.730;5.356;2024-02-16T01:08:37;12.70;84.90
24618;DHT22;12762;51.730;5.356;2024-02-16T01:11:04;12.60;84.80
24618;DHT22;12762;51.730;5.356;2024-02-16T01:13:31;12.70;84.90
24618;DHT22;12762;51.730;5.356;2024-02-16T01:15:59;12.70;85.00
24618;DHT22;12762;51.730;5.356;2024-02-16T01:18:28;12.70;84.90
24618;DHT22;12762;51.730;5.356;2024-02-16T01:20:55;12.60;84.80
24618;DHT22;12762;51.730;5.356;2024-02-16T01:23:25;12.60;84.80
24618;DHT22;12762;51.730;5.356;2024-02-16T01:25:51;12.70;84.90
24618;DHT22;12762;51.730;5.356;2024-02-16T01:28:18;12.60;84.90
24618;DHT22;12762;51.730;5.356;2024-02-16T01:30:45;12.60;84.90
24618;DHT22;12762;51.730;5.356;2024-02-16T01:33:11;12.60;84.90
24618;DHT22;12762;51.730;5.356;2024-02-16T01:35:39;12.60;85.00
24618;DHT22;12762;51.730;5.356;2024-02-16T01:38:06;12.60;84.90
24618;DHT22;12762;51.730;5.356;2024-02-16T01:40:32;12.60;85.00
24618;DHT22;12762;51.730;5.356;2024-02-16T01:42:59;12.60;84.90
24618;DHT22;12762;51.730;5.356;2024-02-16T01:45:26;12.60;84.90
24618;DHT22;12762;51.730;5.356;2024-02-16T01:47:53;12.60;84.90
24618;DHT22;12762;51.730;5.356;2024-02-16T01:50:21;12.60;85.00
24618;DHT22;12762;51.730;5.356;2024-02-16T01:52:49;12.50;84.90
24618;DHT22;12762;51.730;5.356;2024-02-16T01:55:16;12.50;84.90
24618;DHT22;12762;51.730;5.356;2024-02-16T01:57:45;12.50;85.00
24618;DHT22;12762;51.730;5.356;2024-02-16T02:00:12;12.50;85.00
24618;DHT22;12762;51.730;5.356;2024-02-16T02:02:44;12.50;85.10
24618;DHT22;12762;51.730;5.356;2024-02-16T02:05:12;12.50;85.10
24618;DHT22;12762;51.730;5.356;2024-02-16T02:07:40;12.50;85.10
24618;DHT22;12762;51.730;5.356;2024-02-16T02:10:10;12.50;85.10
24618;DHT22;12762;51.730;5.356;2024-02-16T02:12:40;12.50;85.10
24618;DHT22;12762;51.730;5.356;2024-02-16T02:15:09;12.50;85.00
24618;DHT22;12762;51.730;5.356;2024-02-16T02:17:36;12.50;85.00
24618;DHT22;12762;51.730;5.356;2024-02-16T02:20:06;12.50;85.00
24618;DHT22;12762;51.730;5.356;2024-02-16T02:22:38;12.50;85.00
24618;DHT22;12762;51.730;5.356;2024-02-16T02:25:05;12.50;85.00
24618;DHT22;12762;51.730;5.356;2024-02-16T02:27:31;12.40;85.00
24618;DHT22;12762;51.730;5.356;2024-02-16T02:29:58;12.40;85.00
24618;DHT22;12762;51.730;5.356;2024-02-16T02:32:25;12.40;85.00
24618;DHT22;12762;51.730;5.356;2024-02-16T02:34:52;12.40;85.10
24618;DHT22;12762;51.730;5.356;2024-02-16T02:37:19;12.40;85.10
24618;DHT22;12762;51.730;5.356;2024-02-16T02:39:46;12.30;85.00
24618;DHT22;12762;51.730;5.356;2024-02-16T02:42:14;12.30;85.10
24618;DHT22;12762;51.730;5.356;2024-02-16T02:44:43;12.30;85.10
24618;DHT22;12762;51.730;5.356;2024-02-16T02:47:16;12.30;85.10
24618;DHT22;12762;51.730;5.356;2024-02-16T02:49:44;12.30;85.20
24618;DHT22;12762;51.730;5.356;2024-02-16T02:52:11;12.20;85.10
24618;DHT22;12762;51.730;5.356;2024-02-16T02:54:37;12.20;85.20
24618;DHT22;12762;51.730;5.356;2024-02-16T02:57:04;12.20;85.20
24618;DHT22;12762;51.730;5.356;2024-02-16T02:59:31;12.20;85.30
24618;DHT22;12762;51.730;5.356;2024-02-16T03:01:58;12.10;85.20
24618;DHT22;12762;51.730;5.356;2024-02-16T03:04:24;12.10;85.20
24618;DHT22;12762;51.730;5.356;2024-02-16T03:06:52;12.10;85.30
24618;DHT22;12762;51.730;5.356;2024-02-16T03:09:20;12.10;85.30
24618;DHT22;12762;51.730;5.356;2024-02-16T03:11:47;12.10;85.30
24618;DHT22;12762;51.730;5.356;2024-02-16T03:14:14;12.10;85.30
24618;DHT22;12762;51.730;5.356;2024-02-16T03:16:40;12.00;85.30
24618;DHT22;12762;51.730;5.356;2024-02-16T03:19:07;12.00;85.30
24618;DHT22;12762;51.730;5.356;2024-02-16T03:21:40;12.00;85.30
24618;DHT22;12762;51.730;5.356;2024-02-16T03:24:06;12.00;85.40
24618;DHT22;12762;51.730;5.356;2024-02-16T03:26:33;12.00;85.40
24618;DHT22;12762;51.730;5.356;2024-02-16T03:29:00;11.90;85.40
24618;DHT22;12762;51.730;5.356;2024-02-16T03:31:27;11.90;85.40
24618;DHT22;12762;51.730;5.356;2024-02-16T03:33:54;11.90;85.50
24618;DHT22;12762;51.730;5.356;2024-02-16T03:36:22;11.90;85.60
24618;DHT22;12762;51.730;5.356;2024-02-16T03:38:49;11.90;85.60
24618;DHT22;12762;51.730;5.356;2024-02-16T03:41:22;11.90;85.60
24618;DHT22;12762;51.730;5.356;2024-02-16T03:43:50;11.90;85.60
24618;DHT22;12762;51.730;5.356;2024-02-16T03:46:17;11.90;85.70
24618;DHT22;12762;51.730;5.356;2024-02-16T03:48:44;11.90;85.70
24618;DHT22;12762;51.730;5.356;2024-02-16T03:51:12;11.90;85.60
24618;DHT22;12762;51.730;5.356;2024-02-16T03:53:39;11.90;86.40
24618;DHT22;12762;51.730;5.356;2024-02-16T03:56:06;11.90;85.70
24618;DHT22;12762;51.730;5.356;2024-02-16T03:58:33;11.90;85.70
24618;DHT22;12762;51.730;5.356;2024-02-16T04:01:00;11.90;85.70
24618;DHT22;12762;51.730;5.356;2024-02-16T04:03:27;11.90;85.70
24618;DHT22;12762;51.730;5.356;2024-02-16T04:05:54;11.90;85.70
24618;DHT22;12762;51.730;5.356;2024-02-16T04:08:27;11.90;85.70
24618;DHT22;12762;51.730;5.356;2024-02-16T04:10:54;11.90;85.70
24618;DHT22;12762;51.730;5.356;2024-02-16T04:13:20;11.90;85.60
24618;DHT22;12762;51.730;5.356;2024-02-16T04:15:47;11.90;85.60
24618;DHT22;12762;51.730;5.356;2024-02-16T04:18:20;12.00;85.70
24618;DHT22;12762;51.730;5.356;2024-02-16T04:20:47;12.00;85.70
24618;DHT22;12762;51.730;5.356;2024-02-16T04:23:13;12.00;85.70
24618;DHT22;12762;51.730;5.356;2024-02-16T04:25:40;12.00;85.70
24618;DHT22;12762;51.730;5.356;2024-02-16T04:28:10;12.00;85.60
24618;DHT22;12762;51.730;5.356;2024-02-16T04:30:36;12.00;85.60
24618;DHT22;12762;51.730;5.356;2024-02-16T04:33:04;12.00;85.60
24618;DHT22;12762;51.730;5.356;2024-02-16T04:35:31;12.00;85.60
24618;DHT22;12762;51.730;5.356;2024-02-16T04:37:57;12.00;85.60
24618;DHT22;12762;51.730;5.356;2024-02-16T04:40:24;12.10;85.70
24618;DHT22;12762;51.730;5.356;2024-02-16T04:42:57;12.10;85.70
24618;DHT22;12762;51.730;5.356;2024-02-16T04:45:24;12.10;85.70
24618;DHT22;12762;51.730;5.356;2024-02-16T04:47:51;12.10;85.60
24618;DHT22;12762;51.730;5.356;2024-02-16T04:50:17;12.10;85.70
24618;DHT22;12762;51.730;5.356;2024-02-16T04:52:44;12.00;85.60
24618;DHT22;12762;51.730;5.356;2024-02-16T04:55:11;12.00;85.60
24618;DHT22;12762;51.730;5.356;2024-02-16T04:57:38;12.00;85.60
24618;DHT22;12762;51.730;5.356;2024-02-16T05:00:05;12.00;85.60
24618;DHT22;12762;51.730;5.356;2024-02-16T05:02:32;12.00;85.60
24618;DHT22;12762;51.730;5.356;2024-02-16T05:04:59;12.00;85.70
24618;DHT22;12762;51.730;5.356;2024-02-16T05:07:30;12.00;85.80
24618;DHT22;12762;51.730;5.356;2024-02-16T05:09:58;12.00;85.80
24618;DHT22;12762;51.730;5.356;2024-02-16T05:12:25;12.00;85.80
24618;DHT22;12762;51.730;5.356;2024-02-16T05:14:53;12.00;85.80
24618;DHT22;12762;51.730;5.356;2024-02-16T05:17:20;12.00;85.80
24618;DHT22;12762;51.730;5.356;2024-02-16T05:19:48;12.10;85.90
24618;DHT22;12762;51.730;5.356;2024-02-16T05:22:15;12.10;85.90
24618;DHT22;12762;51.730;5.356;2024-02-16T05:24:44;12.10;86.80
24618;DHT22;12762;51.730;5.356;2024-02-16T05:27:11;12.10;85.90
24618;DHT22;12762;51.730;5.356;2024-02-16T05:29:38;12.10;85.90
24618;DHT22;12762;51.730;5.356;2024-02-16T05:32:05;12.20;86.00
24618;DHT22;12762;51.730;5.356;2024-02-16T05:34:32;12.20;86.00
24618;DHT22;12762;51.730;5.356;2024-02-16T05:37:05;12.20;86.00
24618;DHT22;12762;51.730;5.356;2024-02-16T05:39:36;12.20;86.00
24618;DHT22;12762;51.730;5.356;2024-02-16T05:42:10;12.30;86.00
24618;DHT22;12762;51.730;5.356;2024-02-16T05:44:37;12.30;86.00
24618;DHT22;12762;51.730;5.356;2024-02-16T05:47:04;12.30;86.00
24618;DHT22;12762;51.730;5.356;2024-02-16T05:49:30;12.30;86.00
24618;DHT22;12762;51.730;5.356;2024-02-16T05:52:07;12.40;86.10
24618;DHT22;12762;51.730;5.356;2024-02-16T05:54:46;12.40;86.10
24618;DHT22;12762;51.730;5.356;2024-02-16T05:57:18;12.40;86.10
24618;DHT22;12762;51.730;5.356;2024-02-16T05:59:45;12.50;86.10
24618;DHT22;12762;51.730;5.356;2024-02-16T06:02:12;12.50;86.00
24618;DHT22;12762;51.730;5.356;2024-02-16T06:04:39;12.50;86.10
24618;DHT22;12762;51.730;5.356;2024-02-16T06:07:06;12.60;86.10
24618;DHT22;12762;51.730;5.356;2024-02-16T06:09:34;12.60;86.10
24618;DHT22;12762;51.730;5.356;2024-02-16T06:12:03;12.70;86.10
24618;DHT22;12762;51.730;5.356;2024-02-16T06:14:32;12.70;86.10
24618;DHT22;12762;51.730;5.356;2024-02-16T06:16:59;12.80;86.20
24618;DHT22;12762;51.730;5.356;2024-02-16T06:19:26;12.80;86.10
24618;DHT22;12762;51.730;5.356;2024-02-16T06:21:54;12.90;86.10
24618;DHT22;12762;51.730;5.356;2024-02-16T06:24:22;12.90;86.00
24618;DHT22;12762;51.730;5.356;2024-02-16T06:26:50;12.90;85.90
24618;DHT22;12762;51.730;5.356;2024-02-16T06:29:23;12.90;85.90
24618;DHT22;12762;51.730;5.356;2024-02-16T06:31:50;13.00;86.00
24618;DHT22;12762;51.730;5.356;2024-02-16T06:34:18;13.00;85.90
24618;DHT22;12762;51.730;5.356;2024-02-16T06:36:46;13.00;85.90
24618;DHT22;12762;51.730;5.356;2024-02-16T06:39:13;13.10;86.00
24618;DHT22;12762;51.730;5.356;2024-02-16T06:41:44;13.10;85.90
24618;DHT22;12762;51.730;5.356;2024-02-16T06:44:15;13.10;85.90
24618;DHT22;12762;51.730;5.356;2024-02-16T06:46:42;13.10;85.80
24618;DHT22;12762;51.730;5.356;2024-02-16T06:49:09;13.10;85.80
24618;DHT22;12762;51.730;5.356;2024-02-16T06:51:36;13.20;85.90
24618;DHT22;12762;51.730;5.356;2024-02-16T06:54:04;13.20;85.80
24618;DHT22;12762;51.730;5.356;2024-02-16T06:56:31;13.20;85.80
24618;DHT22;12762;51.730;5.356;2024-02-16T06:58:58;13.30;85.90
24618;DHT22;12762;51.730;5.356;2024-02-16T07:01:25;13.30;85.80
24618;DHT22;12762;51.730;5.356;2024-02-16T07:03:54;13.30;85.80
24618;DHT22;12762;51.730;5.356;2024-02-16T07:06:21;13.30;85.80
24618;DHT22;12762;51.730;5.356;2024-02-16T07:08:51;13.40;85.80
24618;DHT22;12762;51.730;5.356;2024-02-16T07:11:18;13.40;85.80
24618;DHT22;12762;51.730;5.356;2024-02-16T07:13:47;13.40;85.80
24618;DHT22;12762;51.730;5.356;2024-02-16T07:16:14;13.40;85.70
24618;DHT22;12762;51.730;5.356;2024-02-16T07:18:40;13.40;85.70
24618;DHT22;12762;51.730;5.356;2024-02-16T07:21:09;13.50;85.80
24618;DHT22;12762;51.730;5.356;2024-02-16T07:23:36;13.50;85.70
24618;DHT22;12762;51.730;5.356;2024-02-16T07:26:03;13.50;85.70
24618;DHT22;12762;51.730;5.356;2024-02-16T07:28:33;13.50;85.60
24618;DHT22;12762;51.730;5.356;2024-02-16T07:31:00;13.50;85.60
24618;DHT22;12762;51.730;5.356;2024-02-16T07:33:27;13.60;86.50
24618;DHT22;12762;51.730;5.356;2024-02-16T07:35:58;13.60;85.70
24618;DHT22;12762;51.730;5.356;2024-02-16T07:38:25;13.60;85.70
24618;DHT22;12762;51.730;5.356;2024-02-16T07:40:57;13.60;85.70
24618;DHT22;12762;51.730;5.356;2024-02-16T07:43:24;13.60;85.60
24618;DHT22;12762;51.730;5.356;2024-02-16T07:45:50;13.70;85.60
24618;DHT22;12762;51.730;5.356;2024-02-16T07:48:21;13.70;85.60
24618;DHT22;12762;51.730;5.356;2024-02-16T07:50:48;13.70;85.60
24618;DHT22;12762;51.730;5.356;2024-02-16T07:53:17;13.70;85.60
24618;DHT22;12762;51.730;5.356;2024-02-16T07:55:47;13.70;85.60
24618;DHT22;12762;51.730;5.356;2024-02-16T07:58:14;13.70;85.60
24618;DHT22;12762;51.730;5.356;2024-02-16T08:00:40;13.80;85.80
24618;DHT22;12762;51.730;5.356;2024-02-16T08:03:07;13.80;85.70
24618;DHT22;12762;51.730;5.356;2024-02-16T08:05:34;13.80;85.70
24618;DHT22;12762;51.730;5.356;2024-02-16T08:08:02;13.80;85.80
24618;DHT22;12762;51.730;5.356;2024-02-16T08:10:30;13.80;85.70
24618;DHT22;12762;51.730;5.356;2024-02-16T08:12:56;13.80;85.60
24618;DHT22;12762;51.730;5.356;2024-02-16T08:15:28;13.80;85.70
24618;DHT22;12762;51.730;5.356;2024-02-16T08:17:56;13.80;85.70
24618;DHT22;12762;51.730;5.356;2024-02-16T08:20:23;13.90;85.80
24618;DHT22;12762;51.730;5.356;2024-02-16T08:22:50;13.90;85.80
24618;DHT22;12762;51.730;5.356;2024-02-16T08:25:17;13.90;85.80
24618;DHT22;12762;51.730;5.356;2024-02-16T08:27:44;13.90;85.80
24618;DHT22;12762;51.730;5.356;2024-02-16T08:30:12;13.90;85.80
24618;DHT22;12762;51.730;5.356;2024-02-16T08:32:39;13.90;85.80
24618;DHT22;12762;51.730;5.356;2024-02-16T08:35:06;14.00;86.00
24618;DHT22;12762;51.730;5.356;2024-02-16T08:37:33;14.00;86.00
24618;DHT22;12762;51.730;5.356;2024-02-16T08:40:01;14.00;86.00
24618;DHT22;12762;51.730;5.356;2024-02-16T08:42:28;14.00;86.10
24618;DHT22;12762;51.730;5.356;2024-02-16T08:44:55;14.00;86.10
24618;DHT22;12762;51.730;5.356;2024-02-16T08:47:22;14.10;86.20
24618;DHT22;12762;51.730;5.356;2024-02-16T08:49:48;14.10;86.20
24618;DHT22;12762;51.730;5.356;2024-02-16T08:52:15;14.10;86.20
24618;DHT22;12762;51.730;5.356;2024-02-16T08:54:43;14.10;86.20
24618;DHT22;12762;51.730;5.356;2024-02-16T08:57:10;14.10;86.20
24618;DHT22;12762;51.730;5.356;2024-02-16T08:59:37;14.10;86.20
24618;DHT22;12762;51.730;5.356;2024-02-16T09:02:04;14.10;86.30
24618;DHT22;12762;51.730;5.356;2024-02-16T09:04:34;14.20;86.50
24618;DHT22;12762;51.730;5.356;2024-02-16T09:07:01;14.20;86.50
24618;DHT22;12762;51.730;5.356;2024-02-16T09:09:28;14.20;86.50
24618;DHT22;12762;51.730;5.356;2024-02-16T09:11:55;14.20;86.60
24618;DHT22;12762;51.730;5.356;2024-02-16T09:14:22;14.20;86.60
24618;DHT22;12762;51.730;5.356;2024-02-16T09:16:49;14.10;86.50
24618;DHT22;12762;51.730;5.356;2024-02-16T09:19:19;14.10;86.60
24618;DHT22;12762;51.730;5.356;2024-02-16T09:21:48;14.20;86.80
24618;DHT22;12762;51.730;5.356;2024-02-16T09:24:15;14.10;86.80
24618;DHT22;12762;51.730;5.356;2024-02-16T09:26:45;14.20;86.90
24618;DHT22;12762;51.730;5.356;2024-02-16T09:29:15;14.20;86.90
24618;DHT22;12762;51.730;5.356;2024-02-16T09:31:42;14.20;87.00
24618;DHT22;12762;51.730;5.356;2024-02-16T09:34:09;14.20;87.00
24618;DHT22;12762;51.730;5.356;2024-02-16T09:36:36;14.30;87.10
24618;DHT22;12762;51.730;5.356;2024-02-16T09:39:04;14.30;87.10
24618;DHT22;12762;51.730;5.356;2024-02-16T09:41:34;14.40;87.20
24618;DHT22;12762;51.730;5.356;2024-02-16T09:44:03;14.40;87.10
24618;DHT22;12762;51.730;5.356;2024-02-16T09:46:30;14.50;87.20
24618;DHT22;12762;51.730;5.356;2024-02-16T09:49:07;14.50;87.90
24618;DHT22;12762;51.730;5.356;2024-02-16T09:51:36;14.60;87.10
24618;DHT22;12762;51.730;5.356;2024-02-16T09:54:04;14.60;87.00
24618;DHT22;12762;51.730;5.356;2024-02-16T09:56:31;14.60;87.00
24618;DHT22;12762;51.730;5.356;2024-02-16T09:58:57;14.60;86.90
24618;DHT22;12762;51.730;5.356;2024-02-16T10:01:25;14.70;87.00
24618;DHT22;12762;51.730;5.356;2024-02-16T10:03:52;14.70;87.00
24618;DHT22;12762;51.730;5.356;2024-02-16T10:06:19;14.70;87.00
24618;DHT22;12762;51.730;5.356;2024-02-16T10:08:54;14.70;87.00
24618;DHT22;12762;51.730;5.356;2024-02-16T10:11:24;14.70;87.10
24618;DHT22;12762;51.730;5.356;2024-02-16T10:13:57;14.70;87.10
24618;DHT22;12762;51.730;5.356;2024-02-16T10:16:27;14.70;87.10
24618;DHT22;12762;51.730;5.356;2024-02-16T10:19:03;14.70;87.20
24618;DHT22;12762;51.730;5.356;2024-02-16T10:21:31;14.70;87.20
24618;DHT22;12762;51.730;5.356;2024-02-16T10:24:05;14.70;87.30
24618;DHT22;12762;51.730;5.356;2024-02-16T10:26:35;14.70;87.30
24618;DHT22;12762;51.730;5.356;2024-02-16T10:29:08;14.70;87.30
24618;DHT22;12762;51.730;5.356;2024-02-16T10:31:36;14.70;87.30
24618;DHT22;12762;51.730;5.356;2024-02-16T10:34:05;14.70;87.30
24618;DHT22;12762;51.730;5.356;2024-02-16T10:36:38;14.70;87.30
24618;DHT22;12762;51.730;5.356;2024-02-16T10:39:06;14.70;87.30
24618;DHT22;12762;51.730;5.356;2024-02-16T10:41:39;14.70;87.40
24618;DHT22;12762;51.730;5.356;2024-02-16T10:44:10;14.70;87.40
24618;DHT22;12762;51.730;5.356;2024-02-16T10:46:37;14.70;87.50
24618;DHT22;12762;51.730;5.356;2024-02-16T10:49:04;14.70;87.70
24618;DHT22;12762;51.730;5.356;2024-02-16T10:51:39;14.60;87.70
24618;DHT22;12762;51.730;5.356;2024-02-16T10:54:07;14.50;87.80
24618;DHT22;12762;51.730;5.356;2024-02-16T10:56:36;14.50;88.10
24618;DHT22;12762;51.730;5.356;2024-02-16T10:59:04;14.50;88.30
24618;DHT22;12762;51.730;5.356;2024-02-16T11:01:41;14.40;88.40
24618;DHT22;12762;51.730;5.356;2024-02-16T11:04:11;14.40;88.70
24618;DHT22;12762;51.730;5.356;2024-02-16T11:06:51;14.30;88.90
24618;DHT22;12762;51.730;5.356;2024-02-16T11:09:35;14.30;89.00
24618;DHT22;12762;51.730;5.356;2024-02-16T11:12:03;14.20;89.10
24618;DHT22;12762;51.730;5.356;2024-02-16T11:14:41;14.20;89.50
24618;DHT22;12762;51.730;5.356;2024-02-16T11:17:21;14.10;89.60
24618;DHT22;12762;51.730;5.356;2024-02-16T11:19:48;14.10;89.80
24618;DHT22;12762;51.730;5.356;2024-02-16T11:22:19;14.10;90.00
24618;DHT22;12762;51.730;5.356;2024-02-16T11:24:49;14.10;90.00
24618;DHT22;12762;51.730;5.356;2024-02-16T11:27:17;14.10;90.10
24618;DHT22;12762;51.730;5.356;2024-02-16T11:29:48;14.00;90.10
24618;DHT22;12762;51.730;5.356;2024-02-16T11:32:17;14.00;90.20
24618;DHT22;12762;51.730;5.356;2024-02-16T11:34:46;14.00;90.70
24618;DHT22;12762;51.730;5.356;2024-02-16T11:37:13;14.00;90.30
24618;DHT22;12762;51.730;5.356;2024-02-16T11:39:41;13.90;90.40
24618;DHT22;12762;51.730;5.356;2024-02-16T11:42:12;13.90;90.40
24618;DHT22;12762;51.730;5.356;2024-02-16T11:44:49;13.90;90.80
24618;DHT22;12762;51.730;5.356;2024-02-16T11:47:22;13.90;90.50
24618;DHT22;12762;51.730;5.356;2024-02-16T11:50:09;13.90;90.60
24618;DHT22;12762;51.730;5.356;2024-02-16T11:52:39;13.90;90.70
24618;DHT22;12762;51.730;5.356;2024-02-16T11:55:12;13.90;90.70
24618;DHT22;12762;51.730;5.356;2024-02-16T11:57:41;13.90;90.80
24618;DHT22;12762;51.730;5.356;2024-02-16T12:00:14;13.90;90.80
24618;DHT22;12762;51.730;5.356;2024-02-16T12:02:43;13.90;90.80
24618;DHT22;12762;51.730;5.356;2024-02-16T12:05:14;13.90;90.90
24618;DHT22;12762;51.730;5.356;2024-02-16T12:07:41;13.90;90.90
24618;DHT22;12762;51.730;5.356;2024-02-16T12:10:10;13.90;91.00
24618;DHT22;12762;51.730;5.356;2024-02-16T12:12:37;13.80;91.00
24618;DHT22;12762;51.730;5.356;2024-02-16T12:15:05;13.80;91.00
24618;DHT22;12762;51.730;5.356;2024-02-16T12:17:33;13.80;91.10
24618;DHT22;12762;51.730;5.356;2024-02-16T12:20:10;13.80;91.20
24618;DHT22;12762;51.730;5.356;2024-02-16T12:22:39;13.70;91.10
24618;DHT22;12762;51.730;5.356;2024-02-16T12:25:09;13.70;91.20
24618;DHT22;12762;51.730;5.356;2024-02-16T12:27:36;13.70;91.30
24618;DHT22;12762;51.730;5.356;2024-02-16T12:30:03;13.70;91.30
24618;DHT22;12762;51.730;5.356;2024-02-16T12:32:32;13.70;91.30
24618;DHT22;12762;51.730;5.356;2024-02-16T12:34:59;13.70;91.40
24618;DHT22;12762;51.730;5.356;2024-02-16T12:37:26;13.60;91.40
24618;DHT22;12762;51.730;5.356;2024-02-16T12:39:53;13.60;91.40
24618;DHT22;12762;51.730;5.356;2024-02-16T12:42:24;13.60;91.50
24618;DHT22;12762;51.730;5.356;2024-02-16T12:44:50;13.50;91.50
24618;DHT22;12762;51.730;5.356;2024-02-16T12:47:17;13.50;91.50
24618;DHT22;12762;51.730;5.356;2024-02-16T12:49:44;13.40;91.50
24618;DHT22;12762;51.730;5.356;2024-02-16T12:52:19;13.40;91.60
24618;DHT22;12762;51.730;5.356;2024-02-16T12:54:48;13.30;91.50
24618;DHT22;12762;51.730;5.356;2024-02-16T12:57:23;13.30;91.60
24618;DHT22;12762;51.730;5.356;2024-02-16T12:59:50;13.20;91.60
24618;DHT22;12762;51.730;5.356;2024-02-16T13:02:16;13.20;91.70
24618;DHT22;12762;51.730;5.356;2024-02-16T13:04:43;13.20;91.80
24618;DHT22;12762;51.730;5.356;2024-02-16T13:07:13;13.20;91.90
24618;DHT22;12762;51.730;5.356;2024-02-16T13:09:40;13.20;91.90
24618;DHT22;12762;51.730;5.356;2024-02-16T13:12:11;13.20;91.90
24618;DHT22;12762;51.730;5.356;2024-02-16T13:14:38;13.20;91.90
24618;DHT22;12762;51.730;5.356;2024-02-16T13:17:05;13.30;92.00
24618;DHT22;12762;51.730;5.356;2024-02-16T13:19:31;13.30;92.00
24618;DHT22;12762;51.730;5.356;2024-02-16T13:21:59;13.30;92.10
24618;DHT22;12762;51.730;5.356;2024-02-16T13:24:26;13.40;92.10
24618;DHT22;12762;51.730;5.356;2024-02-16T13:26:53;13.40;92.10
24618;DHT22;12762;51.730;5.356;2024-02-16T13:29:23;13.50;92.20
24618;DHT22;12762;51.730;5.356;2024-02-16T13:31:50;13.60;92.30
24618;DHT22;12762;51.730;5.356;2024-02-16T13:34:16;13.70;92.20
24618;DHT22;12762;51.730;5.356;2024-02-16T13:36:43;13.80;92.20
24618;DHT22;12762;51.730;5.356;2024-02-16T13:39:10;13.80;92.20
24618;DHT22;12762;51.730;5.356;2024-02-16T13:41:38;13.90;92.10
24618;DHT22;12762;51.730;5.356;2024-02-16T13:44:05;13.90;92.10
24618;DHT22;12762;51.730;5.356;2024-02-16T13:46:32;13.90;92.00
24618;DHT22;12762;51.730;5.356;2024-02-16T13:48:58;13.90;92.00
24618;DHT22;12762;51.730;5.356;2024-02-16T13:51:25;13.90;92.00
24618;DHT22;12762;51.730;5.356;2024-02-16T13:53:52;13.90;92.00
24618;DHT22;12762;51.730;5.356;2024-02-16T13:56:19;13.80;91.90
24618;DHT22;12762;51.730;5.356;2024-02-16T13:58:46;13.80;92.30
24618;DHT22;12762;51.730;5.356;2024-02-16T14:01:14;13.80;92.00
24618;DHT22;12762;51.730;5.356;2024-02-16T14:03:41;13.80;92.00
24618;DHT22;12762;51.730;5.356;2024-02-16T14:06:08;13.80;92.00
24618;DHT22;12762;51.730;5.356;2024-02-16T14:08:43;13.80;92.00
24618;DHT22;12762;51.730;5.356;2024-02-16T14:11:10;13.80;92.10
24618;DHT22;12762;51.730;5.356;2024-02-16T14:13:36;13.90;92.10
24618;DHT22;12762;51.730;5.356;2024-02-16T14:16:03;13.90;92.00
24618;DHT22;12762;51.730;5.356;2024-02-16T14:18:30;13.90;92.00
24618;DHT22;12762;51.730;5.356;2024-02-16T14:21:02;14.00;92.00
24618;DHT22;12762;51.730;5.356;2024-02-16T14:23:30;14.00;92.00
24618;DHT22;12762;51.730;5.356;2024-02-16T14:25:57;14.00;92.00
24618;DHT22;12762;51.730;5.356;2024-02-16T14:28:24;14.00;91.90
24618;DHT22;12762;51.730;5.356;2024-02-16T14:30:51;14.00;91.90
24618;DHT22;12762;51.730;5.356;2024-02-16T14:33:18;14.00;91.90
24618;DHT22;12762;51.730;5.356;2024-02-16T14:35:58;14.00;91.90
24618;DHT22;12762;51.730;5.356;2024-02-16T14:38:25;13.90;91.80
24618;DHT22;12762;51.730;5.356;2024-02-16T14:40:52;13.90;91.80
24618;DHT22;12762;51.730;5.356;2024-02-16T14:43:22;13.80;91.80
24618;DHT22;12762;51.730;5.356;2024-02-16T14:45:49;13.80;91.90
24618;DHT22;12762;51.730;5.356;2024-02-16T14:48:16;13.80;91.90
24618;DHT22;12762;51.730;5.356;2024-02-16T14:50:43;13.80;92.00
24618;DHT22;12762;51.730;5.356;2024-02-16T14:53:10;13.80;92.00
24618;DHT22;12762;51.730;5.356;2024-02-16T14:55:37;13.80;92.00
24618;DHT22;12762;51.730;5.356;2024-02-16T14:58:04;13.80;92.00
24618;DHT22;12762;51.730;5.356;2024-02-16T15:00:31;13.70;92.00
24618;DHT22;12762;51.730;5.356;2024-02-16T15:02:57;13.70;92.00
24618;DHT22;12762;51.730;5.356;2024-02-16T15:05:24;13.70;92.00
24618;DHT22;12762;51.730;5.356;2024-02-16T15:07:51;13.70;92.10
24618;DHT22;12762;51.730;5.356;2024-02-16T15:10:18;13.70;92.10
24618;DHT22;12762;51.730;5.356;2024-02-16T15:12:45;13.80;92.20
24618;DHT22;12762;51.730;5.356;2024-02-16T15:15:12;13.80;92.20
24618;DHT22;12762;51.730;5.356;2024-02-16T15:17:40;13.90;92.30
24618;DHT22;12762;51.730;5.356;2024-02-16T15:20:07;13.90;92.20
24618;DHT22;12762;51.730;5.356;2024-02-16T15:22:34;14.00;92.20
24618;DHT22;12762;51.730;5.356;2024-02-16T15:25:14;14.10;92.20
24618;DHT22;12762;51.730;5.356;2024-02-16T15:27:43;14.10;92.10
24618;DHT22;12762;51.730;5.356;2024-02-16T15:30:10;14.10;92.10
24618;DHT22;12762;51.730;5.356;2024-02-16T15:32:37;14.10;92.00
24618;DHT22;12762;51.730;5.356;2024-02-16T15:35:04;14.10;92.00
24618;DHT22;12762;51.730;5.356;2024-02-16T15:37:31;14.10;91.90